createdAt,value
2022-10-15T00:01:42.282Z,100140.72
2022-10-15T00:04:10.609Z,100133.00
2022-10-15T00:06:38.783Z,100133.44
2022-10-15T00:09:06.948Z,100133.41
2022-10-15T00:11:35.942Z,100133.28
2022-10-15T00:14:04.075Z,100121.94
2022-10-15T00:16:33.603Z,100130.09
2022-10-15T00:19:02.174Z,100133.28
2022-10-15T00:21:30.936Z,100121.09
2022-10-15T00:23:58.910Z,100126.72
2022-10-15T00:26:29.265Z,100132.84
2022-10-15T00:29:00.034Z,100134.53
2022-10-15T00:31:30.459Z,100138.09
2022-10-15T00:34:01.022Z,100131.91
2022-10-15T00:36:35.850Z,100137.97
2022-10-15T00:39:05.967Z,100134.12
2022-10-15T00:41:38.241Z,100127.28
2022-10-15T00:44:21.782Z,100122.34
2022-10-15T00:46:53.004Z,100117.53
2022-10-15T00:49:28.665Z,100115.22
2022-10-15T00:52:10.767Z,100108.41
2022-10-15T00:54:43.586Z,100104.28
2022-10-15T00:57:13.580Z,100094.28
2022-10-15T00:59:50.526Z,100106.75
2022-10-15T01:02:20.362Z,100112.47
2022-10-15T01:04:49.129Z,100103.16
2022-10-15T01:09:51.133Z,100106.84
2022-10-15T01:12:57.363Z,100101.66
2022-10-15T01:15:41.253Z,100107.69
2022-10-15T01:18:20.722Z,100099.47
2022-10-15T01:21:21.108Z,100095.78
2022-10-15T01:24:11.377Z,100101.78
2022-10-15T01:27:09.221Z,100101.56
2022-10-15T01:30:25.560Z,100102.72
2022-10-15T01:33:14.968Z,100097.28
2022-10-15T01:35:49.535Z,100094.94
2022-10-15T01:38:26.621Z,100092.75
2022-10-15T01:41:00.922Z,100092.75
2022-10-15T01:43:55.068Z,100088.47
2022-10-15T01:46:37.010Z,100075.63
2022-10-15T01:49:06.987Z,100083.69
2022-10-15T01:51:38.165Z,100086.59
2022-10-15T01:54:11.031Z,100090.56
2022-10-15T01:56:40.359Z,100084.13
2022-10-15T01:59:10.550Z,100090.78
2022-10-15T02:04:22.196Z,100084.81
2022-10-15T02:07:01.373Z,100096.19
2022-10-15T02:09:58.117Z,100090.16
2022-10-15T02:12:32.688Z,100095.50
2022-10-15T02:15:11.815Z,100082.34
2022-10-15T02:17:54.215Z,100096.22
2022-10-15T02:20:32.815Z,100103.16
2022-10-15T02:23:24.828Z,100091.81
2022-10-15T02:25:55.006Z,100087.69
2022-10-15T02:28:27.570Z,100087.16
2022-10-15T02:30:58.531Z,100075.66
2022-10-15T02:33:28.354Z,100076.34
2022-10-15T02:35:58.518Z,100075.66
2022-10-15T02:38:31.335Z,100079.75
2022-10-15T02:41:01.151Z,100078.94
2022-10-15T02:43:30.594Z,100075.78
2022-10-15T02:45:58.895Z,100082.59
2022-10-15T02:48:27.547Z,100077.81
2022-10-15T02:50:55.977Z,100075.47
2022-10-15T02:53:24.226Z,100077.09
2022-10-15T02:55:52.492Z,100073.91
2022-10-15T02:58:20.805Z,100067.78
2022-10-15T03:00:50.126Z,100076.00
2022-10-15T03:03:18.479Z,100065.91
2022-10-15T03:05:47.245Z,100060.94
2022-10-15T03:08:15.844Z,100060.44
2022-10-15T03:10:45.670Z,100065.62
2022-10-15T03:13:14.076Z,100074.94
2022-10-15T03:15:43.249Z,100062.47
2022-10-15T03:18:11.497Z,100069.72
2022-10-15T03:20:40.833Z,100053.19
2022-10-15T03:23:09.093Z,100067.31
2022-10-15T03:25:37.678Z,100060.72
2022-10-15T03:28:06.340Z,100064.78
2022-10-15T03:30:35.146Z,100070.84
2022-10-15T03:33:03.305Z,100073.16
2022-10-15T03:35:31.840Z,100076.16
2022-10-15T03:38:00.322Z,100082.59
2022-10-15T03:40:28.710Z,100085.88
2022-10-15T03:42:58.193Z,100080.00
2022-10-15T03:45:26.929Z,100067.00
2022-10-15T03:47:57.601Z,100079.00
2022-10-15T03:50:29.447Z,100074.94
2022-10-15T03:53:04.518Z,100085.88
2022-10-15T03:55:34.030Z,100076.00
2022-10-15T03:58:03.279Z,100088.84
2022-10-15T04:00:31.441Z,100072.56
2022-10-15T04:03:00.416Z,100069.84
2022-10-15T04:05:28.863Z,100060.78
2022-10-15T04:07:57.557Z,100070.53
2022-10-15T04:10:26.869Z,100061.72
2022-10-15T04:12:54.886Z,100070.91
2022-10-15T04:15:23.097Z,100063.38
2022-10-15T04:17:55.441Z,100069.69
2022-10-15T04:20:24.255Z,100054.78
2022-10-15T04:22:52.689Z,100048.94
2022-10-15T04:25:20.926Z,100051.13
2022-10-15T04:27:49.178Z,100058.78
2022-10-15T04:30:18.174Z,100067.66
2022-10-15T04:32:46.805Z,100066.28
2022-10-15T04:35:15.257Z,100070.53
2022-10-15T04:37:44.258Z,100073.94
2022-10-15T04:40:13.532Z,100077.09
2022-10-15T04:42:41.669Z,100069.94
2022-10-15T04:45:10.269Z,100072.31
2022-10-15T04:47:38.630Z,100070.81
2022-10-15T04:50:07.328Z,100071.13
2022-10-15T04:52:36.315Z,100075.59
2022-10-15T04:55:05.319Z,100085.13
2022-10-15T04:57:33.645Z,100086.22
2022-10-15T05:00:02.463Z,100070.13
2022-10-15T05:02:33.856Z,100071.13
2022-10-15T05:05:08.072Z,100081.53
2022-10-15T05:07:38.599Z,100084.41
2022-10-15T05:10:08.096Z,100083.19
2022-10-15T05:12:36.250Z,100088.16
2022-10-15T05:15:04.745Z,100083.50
2022-10-15T05:17:33.206Z,100081.06
2022-10-15T05:20:05.424Z,100085.34
2022-10-15T05:22:33.957Z,100080.53
2022-10-15T05:25:02.951Z,100086.44
2022-10-15T05:27:31.330Z,100081.09
2022-10-15T05:30:00.009Z,100068.91
2022-10-15T05:32:31.450Z,100072.59
2022-10-15T05:35:00.181Z,100070.25
2022-10-15T05:37:31.445Z,100065.88
2022-10-15T05:40:00.701Z,100064.22
2022-10-15T05:42:28.821Z,100073.78
2022-10-15T05:44:57.729Z,100079.28
2022-10-15T05:47:26.373Z,100081.37
2022-10-15T05:49:57.642Z,100077.94
2022-10-15T05:52:30.251Z,100080.16
2022-10-15T05:54:59.216Z,100087.28
2022-10-15T05:57:28.124Z,100089.22
2022-10-15T05:59:56.387Z,100084.81
2022-10-15T06:02:24.960Z,100091.25
2022-10-15T06:04:53.498Z,100085.53
2022-10-15T06:07:21.908Z,100099.62
2022-10-15T06:09:50.177Z,100098.94
2022-10-15T06:12:19.063Z,100106.75
2022-10-15T06:14:47.224Z,100114.69
2022-10-15T06:17:15.204Z,100118.91
2022-10-15T06:19:48.594Z,100118.53
2022-10-15T06:22:17.157Z,100109.91
2022-10-15T06:24:45.648Z,100110.31
2022-10-15T06:27:13.971Z,100124.53
2022-10-15T06:29:42.029Z,100124.13
2022-10-15T06:32:11.708Z,100127.56
2022-10-15T06:34:42.016Z,100124.13
2022-10-15T06:38:10.206Z,100124.41
2022-10-15T06:40:39.731Z,100126.88
2022-10-15T06:43:10.526Z,100120.72
2022-10-15T06:45:42.067Z,100124.53
2022-10-15T06:48:11.447Z,100122.91
2022-10-15T06:50:39.920Z,100127.66
2022-10-15T06:53:08.585Z,100135.06
2022-10-15T06:55:36.711Z,100141.78
2022-10-15T06:58:05.204Z,100138.75
2022-10-15T07:03:07.731Z,100138.66
2022-10-15T07:05:36.069Z,100143.16
2022-10-15T07:08:05.423Z,100146.16
2022-10-15T07:10:33.844Z,100142.03
2022-10-15T07:13:02.209Z,100148.38
2022-10-15T07:15:30.326Z,100144.38
2022-10-15T07:18:01.534Z,100152.00
2022-10-15T07:20:31.189Z,100157.38
2022-10-15T07:23:02.416Z,100151.44
2022-10-15T07:25:31.765Z,100149.88
2022-10-15T07:28:00.122Z,100151.53
2022-10-15T07:30:28.752Z,100153.03
2022-10-15T07:32:58.073Z,100151.47
2022-10-15T07:35:27.555Z,100158.28
2022-10-15T07:37:56.247Z,100147.31
2022-10-15T07:40:24.410Z,100159.22
2022-10-15T07:42:54.300Z,100156.94
2022-10-15T07:45:25.870Z,100157.50
2022-10-15T07:47:54.128Z,100157.31
2022-10-15T07:50:22.389Z,100162.22
2022-10-15T07:52:50.721Z,100158.25
2022-10-15T07:55:18.932Z,100143.94
2022-10-15T07:57:46.929Z,100145.37
2022-10-15T08:00:15.568Z,100152.44
2022-10-15T08:02:45.492Z,100155.06
2022-10-15T08:05:15.161Z,100156.53
2022-10-15T08:07:43.690Z,100157.34
2022-10-15T08:10:13.464Z,100158.09
2022-10-15T08:12:41.606Z,100166.37
2022-10-15T08:15:10.157Z,100158.56
2022-10-15T08:17:38.775Z,100164.03
2022-10-15T08:20:07.324Z,100165.56
2022-10-15T08:22:35.848Z,100170.53
2022-10-15T08:25:05.027Z,100174.47
2022-10-15T08:27:33.319Z,100175.87
2022-10-15T08:30:05.497Z,100171.84
2022-10-15T08:32:34.182Z,100168.19
2022-10-15T08:35:02.398Z,100162.37
2022-10-15T08:37:33.752Z,100151.69
2022-10-15T08:40:03.785Z,100157.62
2022-10-15T08:42:42.102Z,100160.03
2022-10-15T08:45:14.061Z,100162.53
2022-10-15T08:47:50.144Z,100167.50
2022-10-15T08:50:37.272Z,100162.19
2022-10-15T08:53:05.531Z,100161.53
2022-10-15T08:55:41.491Z,100159.53
2022-10-15T08:58:16.125Z,100156.00
2022-10-15T09:00:52.661Z,100151.38
2022-10-15T09:03:26.517Z,100154.22
2022-10-15T09:06:10.118Z,100159.25
2022-10-15T09:08:44.323Z,100155.16
2022-10-15T09:11:17.298Z,100161.63
2022-10-15T09:13:46.998Z,100164.03
2022-10-15T09:16:28.678Z,100170.66
2022-10-15T09:18:59.825Z,100164.38
2022-10-15T09:21:30.413Z,100171.78
2022-10-15T09:24:05.222Z,100179.31
2022-10-15T09:26:45.451Z,100177.22
2022-10-15T09:29:30.260Z,100173.97
2022-10-15T09:32:12.289Z,100173.94
2022-10-15T09:34:40.447Z,100171.56
2022-10-15T09:37:23.982Z,100176.50
2022-10-15T09:40:35.935Z,100174.38
2022-10-15T09:43:05.988Z,100167.69
2022-10-15T09:45:34.069Z,100169.78
2022-10-15T09:48:04.217Z,100159.09
2022-10-15T09:50:50.139Z,100187.25
2022-10-15T09:53:40.550Z,100174.25
2022-10-15T09:56:49.314Z,100169.56
2022-10-15T09:59:19.201Z,100162.87
2022-10-15T10:01:58.417Z,100165.72
2022-10-15T10:04:33.092Z,100155.94
2022-10-15T10:07:04.637Z,100153.13
2022-10-15T10:09:37.257Z,100153.72
2022-10-15T10:12:08.602Z,100159.19
2022-10-15T10:15:22.003Z,100161.44
2022-10-15T10:17:57.250Z,100168.06
2022-10-15T10:20:28.789Z,100163.69
2022-10-15T10:22:59.852Z,100159.94
2022-10-15T10:25:42.669Z,100152.19
2022-10-15T10:28:13.468Z,100148.69
2022-10-15T10:30:53.476Z,100148.75
2022-10-15T10:33:50.102Z,100151.22
2022-10-15T10:36:24.650Z,100141.19
2022-10-15T10:39:04.727Z,100145.22
2022-10-15T10:41:52.944Z,100145.03
2022-10-15T10:44:39.681Z,100133.62
2022-10-15T10:47:23.708Z,100130.84
2022-10-15T10:49:58.861Z,100141.56
2022-10-15T10:52:36.368Z,100128.31
2022-10-15T10:55:25.575Z,100131.03
2022-10-15T10:57:57.878Z,100132.00
2022-10-15T11:00:43.014Z,100130.50
2022-10-15T11:03:30.783Z,100119.91
2022-10-15T11:06:51.903Z,100124.16
2022-10-15T11:09:26.781Z,100126.31
2022-10-15T11:12:06.605Z,100119.34
2022-10-15T11:15:12.532Z,100121.81
2022-10-15T11:17:59.264Z,100107.75
2022-10-15T11:21:00.759Z,100112.63
2022-10-15T11:23:45.988Z,100109.66
2022-10-15T11:27:09.472Z,100112.91
2022-10-15T11:29:55.548Z,100104.09
2022-10-15T11:32:47.990Z,100096.25
2022-10-15T11:36:10.499Z,100083.59
2022-10-15T11:38:47.783Z,100075.97
2022-10-15T11:41:34.173Z,100078.59
2022-10-15T11:44:26.636Z,100073.25
2022-10-15T11:47:21.759Z,100073.75
2022-10-15T11:50:08.654Z,100070.31
2022-10-15T11:52:45.047Z,100067.31
2022-10-15T11:55:19.209Z,100064.88
2022-10-15T11:57:51.691Z,100061.03
2022-10-15T12:00:32.629Z,100069.62
2022-10-15T12:03:16.473Z,100058.75
2022-10-15T12:05:53.617Z,100051.69
2022-10-15T12:08:26.571Z,100058.16
2022-10-15T12:10:58.634Z,100057.56
2022-10-15T12:13:50.803Z,100055.56
2022-10-15T12:16:37.949Z,100046.53
2022-10-15T12:19:21.887Z,100054.06
2022-10-15T12:21:56.976Z,100053.19
2022-10-15T12:24:51.678Z,100057.09
2022-10-15T12:27:20.150Z,100054.59
2022-10-15T12:30:00.311Z,100046.44
2022-10-15T12:32:37.694Z,100044.22
2022-10-15T12:35:28.461Z,100045.47
2022-10-15T12:38:10.879Z,100046.44
2022-10-15T12:40:40.346Z,100046.38
2022-10-15T12:43:17.642Z,100045.91
2022-10-15T12:46:00.813Z,100042.94
2022-10-15T12:48:36.496Z,100035.75
2022-10-15T12:51:17.011Z,100040.03
2022-10-15T12:53:46.916Z,100033.25
2022-10-15T12:56:15.257Z,100030.63
2022-10-15T12:58:44.431Z,100028.88
2022-10-15T13:01:15.464Z,100033.91
2022-10-15T13:03:52.506Z,100028.72
2022-10-15T13:06:20.637Z,100048.47
2022-10-15T13:09:03.623Z,100038.78
2022-10-15T13:11:45.848Z,100040.16
2022-10-15T13:14:26.260Z,100040.37
2022-10-15T13:16:57.689Z,100038.78
2022-10-15T13:19:30.528Z,100037.13
2022-10-15T13:22:04.081Z,100036.50
2022-10-15T13:24:43.274Z,100030.63
2022-10-15T13:27:15.854Z,100041.16
2022-10-15T13:29:55.405Z,100039.53
2022-10-15T13:32:25.460Z,100041.47
2022-10-15T13:34:55.987Z,100041.91
2022-10-15T13:37:34.460Z,100039.66
2022-10-15T13:40:07.789Z,100039.22
2022-10-15T13:42:36.782Z,100041.03
2022-10-15T13:45:17.316Z,100048.31
2022-10-15T13:47:51.335Z,100051.94
2022-10-15T13:50:25.866Z,100053.34
2022-10-15T13:52:55.819Z,99830.81
2022-10-15T13:55:28.556Z,100046.56
2022-10-15T13:58:03.438Z,100043.72
2022-10-15T14:00:34.886Z,100044.37
2022-10-15T14:03:13.458Z,100040.28
2022-10-15T14:05:42.951Z,100033.66
2022-10-15T14:08:33.904Z,100044.37
2022-10-15T14:11:02.202Z,100042.53
2022-10-15T14:13:30.522Z,100030.56
2022-10-15T14:16:00.641Z,100032.19
2022-10-15T14:18:43.089Z,100035.03
2022-10-15T14:21:16.294Z,100031.53
2022-10-15T14:23:47.056Z,100038.16
2022-10-15T14:26:16.989Z,100036.72
2022-10-15T14:28:52.117Z,100038.72
2022-10-15T14:31:53.640Z,100041.25
2022-10-15T14:34:35.173Z,100034.94
2022-10-15T14:37:24.081Z,100020.72
2022-10-15T14:40:23.189Z,100032.41
2022-10-15T14:43:06.686Z,100026.34
2022-10-15T14:45:37.726Z,100026.16
2022-10-15T14:48:15.627Z,100021.78
2022-10-15T14:50:44.701Z,100033.94
2022-10-15T14:53:38.474Z,100028.06
2022-10-15T14:56:15.060Z,100032.06
2022-10-15T14:58:53.706Z,100037.53
2022-10-15T15:01:22.474Z,100030.53
2022-10-15T15:03:53.598Z,100039.72
2022-10-15T15:06:21.944Z,100045.34
2022-10-15T15:08:50.492Z,100039.19
2022-10-15T15:11:23.276Z,100036.56
2022-10-15T15:13:52.401Z,100035.91
2022-10-15T15:16:20.613Z,100041.91
2022-10-15T15:18:48.921Z,100033.56
2022-10-15T15:21:23.909Z,100034.84
2022-10-15T15:23:52.170Z,100034.66
2022-10-15T15:26:20.627Z,100032.09
2022-10-15T15:28:48.884Z,100036.38
2022-10-15T15:31:18.902Z,100034.13
2022-10-15T15:33:47.245Z,100029.56
2022-10-15T15:36:20.862Z,100026.31
2022-10-15T15:38:52.016Z,100036.56
2022-10-15T15:41:23.166Z,100025.25
2022-10-15T15:43:52.544Z,100033.03
2022-10-15T15:46:20.865Z,100033.03
2022-10-15T15:48:48.974Z,100031.09
2022-10-15T15:51:28.888Z,100038.25
2022-10-15T15:53:57.876Z,100033.91
2022-10-15T15:56:26.297Z,100041.47
2022-10-15T15:58:54.398Z,100053.19
2022-10-15T16:01:22.700Z,100054.97
2022-10-15T16:03:51.054Z,100059.25
2022-10-15T16:06:19.099Z,100062.31
2022-10-15T16:08:47.226Z,100061.31
2022-10-15T16:11:15.556Z,100065.72
2022-10-15T16:13:43.647Z,100064.63
2022-10-15T16:16:14.870Z,100074.69
2022-10-15T16:18:43.412Z,100075.34
2022-10-15T16:21:11.450Z,100074.06
2022-10-15T16:23:39.532Z,100076.47
2022-10-15T16:26:08.596Z,100082.69
2022-10-15T16:28:36.691Z,100087.16
2022-10-15T16:31:29.381Z,100090.56
2022-10-15T16:33:59.372Z,100096.12
2022-10-15T16:36:27.552Z,100095.50
2022-10-15T16:38:57.066Z,100102.28
2022-10-15T16:41:25.631Z,100106.38
2022-10-15T16:43:54.148Z,100105.78
2022-10-15T16:46:22.841Z,100105.78
2022-10-15T16:48:55.234Z,100108.59
2022-10-15T16:51:24.483Z,100118.13
2022-10-15T16:53:52.997Z,100114.69
2022-10-15T16:56:24.200Z,100125.00
2022-10-15T16:58:53.237Z,100122.59
2022-10-15T17:01:24.892Z,100128.81
2022-10-15T17:03:53.662Z,100124.56
2022-10-15T17:06:24.978Z,100124.25
2022-10-15T17:08:55.989Z,100125.56
2022-10-15T17:11:29.356Z,100128.84
2022-10-15T17:14:01.055Z,100129.19
2022-10-15T17:16:36.440Z,100132.81
2022-10-15T17:19:05.696Z,100139.34
2022-10-15T17:21:34.770Z,100143.28
2022-10-15T17:24:06.451Z,100144.25
2022-10-15T17:26:38.505Z,100145.91
2022-10-15T17:29:10.316Z,100143.38
2022-10-15T17:31:39.389Z,100157.00
2022-10-15T17:34:10.166Z,100154.22
2022-10-15T17:36:45.768Z,100162.28
2022-10-15T17:39:19.276Z,100156.91
2022-10-15T17:41:48.265Z,100162.66
2022-10-15T17:44:16.777Z,100165.63
2022-10-15T17:46:44.963Z,100167.94
2022-10-15T17:49:18.254Z,100163.13
2022-10-15T17:51:47.175Z,100167.94
2022-10-15T17:54:16.366Z,100169.25
2022-10-15T17:56:45.923Z,100177.75
2022-10-15T17:59:13.999Z,100175.13
2022-10-15T18:02:00.364Z,100168.31
2022-10-15T18:04:33.684Z,100171.72
2022-10-15T18:07:01.842Z,100180.59
2022-10-15T18:09:30.292Z,100178.81
2022-10-15T18:12:00.625Z,100179.78
2022-10-15T18:14:30.427Z,100178.81
2022-10-15T18:16:58.884Z,100185.38
2022-10-15T18:19:28.218Z,100195.97
2022-10-15T18:21:57.618Z,100195.34
2022-10-15T18:24:26.141Z,100203.19
2022-10-15T18:26:54.931Z,100194.53
2022-10-15T18:29:25.197Z,100197.81
2022-10-15T18:31:57.633Z,100182.09
2022-10-15T18:34:28.062Z,100195.34
2022-10-15T18:36:56.776Z,100187.84
2022-10-15T18:39:26.018Z,100188.97
2022-10-15T18:41:54.870Z,100181.62
2022-10-15T18:44:24.218Z,100185.03
2022-10-15T18:46:52.395Z,100185.22
2022-10-15T18:49:21.707Z,100188.00
2022-10-15T18:51:54.173Z,100195.19
2022-10-15T18:54:22.603Z,100196.03
2022-10-15T18:56:52.509Z,100190.91
2022-10-15T18:59:21.227Z,100191.94
2022-10-15T19:01:50.351Z,100193.41
2022-10-15T19:04:23.307Z,100176.50
2022-10-15T19:06:53.783Z,100195.69
2022-10-15T19:09:26.267Z,100196.84
2022-10-15T19:11:57.102Z,100194.84
2022-10-15T19:14:28.154Z,100199.63
2022-10-15T19:16:57.017Z,100192.91
2022-10-15T19:19:26.575Z,100204.19
2022-10-15T19:21:58.304Z,100211.25
2022-10-15T19:24:26.946Z,100208.78
2022-10-15T19:26:55.249Z,100211.59
2022-10-15T19:29:25.447Z,100219.09
2022-10-15T19:31:55.796Z,100222.72
2022-10-15T19:34:23.920Z,100223.53
2022-10-15T19:36:52.041Z,100231.88
2022-10-15T19:39:24.441Z,100232.53
2022-10-15T19:41:53.214Z,100229.94
2022-10-15T19:44:25.693Z,100228.62
2022-10-15T19:46:57.464Z,100225.66
2022-10-15T19:49:25.914Z,100228.59
2022-10-15T19:51:54.805Z,100240.69
2022-10-15T19:54:23.052Z,100235.44
2022-10-15T19:56:51.548Z,100238.91
2022-10-15T19:59:22.481Z,100235.12
2022-10-15T20:01:50.570Z,100236.28
2022-10-15T20:04:20.406Z,100231.69
2022-10-15T20:06:51.669Z,100235.12
2022-10-15T20:09:20.392Z,100243.00
2022-10-15T20:11:48.543Z,100248.06
2022-10-15T20:14:16.554Z,100253.31
2022-10-15T20:16:46.357Z,100252.47
2022-10-15T20:19:14.513Z,100260.34
2022-10-15T20:21:42.572Z,100259.03
2022-10-15T20:24:11.041Z,100263.28
2022-10-15T20:26:39.432Z,100274.91
2022-10-15T20:29:07.830Z,100274.91
2022-10-15T20:31:36.250Z,100272.13
2022-10-15T20:34:04.333Z,100277.53
2022-10-15T20:36:32.591Z,100267.72
2022-10-15T20:39:01.912Z,100278.53
2022-10-15T20:41:31.588Z,100283.28
2022-10-15T20:43:59.949Z,100274.91
2022-10-15T20:46:34.475Z,100277.06
2022-10-15T20:51:45.153Z,100274.63
2022-10-15T20:54:14.541Z,100284.94
2022-10-15T20:56:42.736Z,100290.16
2022-10-15T20:59:11.356Z,100291.94
2022-10-15T21:01:39.614Z,100289.81
2022-10-15T21:04:07.692Z,100294.25
2022-10-15T21:06:36.297Z,100288.84
2022-10-15T21:09:04.840Z,100292.59
2022-10-15T21:11:33.028Z,100292.75
2022-10-15T21:14:05.378Z,100289.81
2022-10-15T21:16:33.419Z,100295.56
2022-10-15T21:19:01.800Z,100299.97
2022-10-15T21:21:30.617Z,100297.03
2022-10-15T21:23:59.285Z,100304.06
2022-10-15T21:26:27.644Z,100299.62
2022-10-15T21:28:57.525Z,100305.03
2022-10-15T21:31:26.580Z,100310.12
2022-10-15T21:33:55.354Z,100307.66
2022-10-15T21:36:26.745Z,100297.31
2022-10-15T21:38:57.729Z,100289.13
2022-10-15T21:41:27.393Z,100304.38
2022-10-15T21:43:56.365Z,100296.97
2022-10-15T21:46:25.265Z,100304.50
2022-10-15T21:48:54.056Z,100298.75
2022-10-15T21:51:25.951Z,100304.31
2022-10-15T21:53:55.848Z,100310.22
2022-10-15T21:56:24.619Z,100302.88
2022-10-15T21:58:54.466Z,100316.09
2022-10-15T22:01:25.316Z,100312.00
2022-10-15T22:03:58.781Z,100307.75
2022-10-15T22:06:28.085Z,100312.34
2022-10-15T22:08:56.806Z,100323.47
2022-10-15T22:11:27.627Z,100319.09
2022-10-15T22:14:00.883Z,100312.41
2022-10-15T22:16:30.660Z,100321.25
2022-10-15T22:18:59.115Z,100325.16
2022-10-15T22:21:30.502Z,100318.78
2022-10-15T22:24:05.428Z,100317.31
2022-10-15T22:26:36.994Z,100329.75
2022-10-15T22:29:08.264Z,100325.84
2022-10-15T22:31:36.586Z,100333.06
2022-10-15T22:34:04.869Z,100327.84
2022-10-15T22:36:33.251Z,100329.63
2022-10-15T22:39:05.111Z,100336.50
2022-10-15T22:41:36.963Z,100333.88
2022-10-15T22:44:05.991Z,100340.59
2022-10-15T22:46:36.116Z,100341.44
2022-10-15T22:49:05.991Z,100342.91
2022-10-15T22:51:34.492Z,100334.69
2022-10-15T22:54:03.161Z,100346.00
2022-10-15T22:56:31.643Z,100349.37
2022-10-15T22:59:00.078Z,100345.47
2022-10-15T23:01:30.523Z,100350.22
2022-10-15T23:04:04.371Z,100358.09
2022-10-15T23:06:35.469Z,100365.78
2022-10-15T23:09:05.787Z,100352.84
2022-10-15T23:11:37.732Z,100350.84
2022-10-15T23:14:10.191Z,100352.34
2022-10-15T23:16:41.554Z,100347.44
2022-10-15T23:19:27.682Z,100349.88
2022-10-15T23:21:56.725Z,100358.41
2022-10-15T23:24:27.349Z,100357.41
2022-10-15T23:26:55.838Z,100353.50
2022-10-15T23:29:26.758Z,100367.69
2022-10-15T23:31:55.067Z,100372.81
2022-10-15T23:34:25.711Z,100372.28
2022-10-15T23:36:53.883Z,100371.97
2022-10-15T23:39:25.514Z,100373.59
2022-10-15T23:41:55.485Z,100368.38
2022-10-15T23:44:25.727Z,100370.19
2022-10-15T23:46:54.857Z,100370.97
2022-10-15T23:49:23.229Z,100378.66
2022-10-15T23:51:51.510Z,100379.94
2022-10-15T23:54:20.271Z,100372.09
2022-10-15T23:56:48.599Z,100372.78
2022-10-15T23:59:18.262Z,100383.41
